Time;durP1;ratioP1;P1;durP2;ratioP2;P2;SDS_P1;SDS_P2;PMS_P1;PMS_P2;Temp;Humidity;BMP_temperature;BMP_pressure;BME280_temperature;BME280_humidity;BME280_pressure;Samples;Min_cycle;Max_cycle;Signal;HPM_P1;HPM_P2
2023/09/01 00:00:46;;;;;;;10.15;3.67;;;;;;;14.29;100.00;98681.19;5004604;28;20029;-59
2023/09/01 00:03:12;;;;;;;5.35;3.40;;;;;;;14.29;100.00;98676.59;5011908;28;20037;-59
2023/09/01 00:05:38;;;;;;;11.68;3.80;;;;;;;14.32;100.00;98678.00;4995782;28;20038;-59
2023/09/01 00:08:04;;;;;;;17.77;2.92;;;;;;;14.31;100.00;98671.75;5014231;28;20104;-59
2023/09/01 00:10:29;;;;;;;6.15;2.40;;;;;;;14.37;100.00;98657.22;5014361;28;20033;-59
2023/09/01 00:12:56;;;;;;;11.82;3.20;;;;;;;14.47;100.00;98654.75;5000395;28;20109;-59
2023/09/01 00:15:22;;;;;;;11.38;3.10;;;;;;;14.46;100.00;98635.91;5030179;23;20110;-72
2023/09/01 00:17:47;;;;;;;5.38;2.55;;;;;;;14.49;100.00;98640.94;5079703;28;20009;-75
2023/09/01 00:20:12;;;;;;;11.90;2.90;;;;;;;14.55;100.00;98658.25;5094684;28;20009;-72
2023/09/01 00:22:38;;;;;;;8.05;2.83;;;;;;;14.65;100.00;98655.78;5087643;28;20024;-72
2023/09/01 00:25:03;;;;;;;4.85;2.47;;;;;;;14.68;100.00;98672.47;5093669;28;20024;-72
2023/09/01 00:27:29;;;;;;;8.00;2.72;;;;;;;14.66;100.00;98663.72;5071373;28;20016;-75
2023/09/01 00:29:54;;;;;;;5.85;3.08;;;;;;;14.71;100.00;98664.91;5077024;28;20501;-72
2023/09/01 00:32:19;;;;;;;7.22;3.20;;;;;;;14.62;100.00;98648.91;5078439;28;20032;-72
2023/09/01 00:34:45;;;;;;;7.65;3.38;;;;;;;14.58;100.00;98661.31;5067429;28;20032;-72
2023/09/01 00:37:10;;;;;;;7.80;3.30;;;;;;;14.51;100.00;98649.66;5082442;28;20024;-72
2023/09/01 00:39:35;;;;;;;11.80;3.10;;;;;;;14.55;100.00;98652.81;5094909;28;20019;-75
2023/09/01 00:42:01;;;;;;;7.28;3.65;;;;;;;14.55;100.00;98650.91;5080593;28;20032;-72
2023/09/01 00:44:26;;;;;;;6.22;3.65;;;;;;;14.51;100.00;98636.06;5084412;28;20044;-72
2023/09/01 00:46:51;;;;;;;14.07;3.67;;;;;;;14.56;100.00;98647.09;5065856;28;20024;-74
2023/09/01 00:49:18;;;;;;;8.43;3.25;;;;;;;14.54;100.00;98643.81;5078558;28;20035;-72
2023/09/01 00:51:47;;;;;;;4.15;2.67;;;;;;;14.55;100.00;98640.00;5061330;28;20100;-73
2023/09/01 00:54:12;;;;;;;10.85;3.15;;;;;;;14.60;100.00;98623.00;5053631;28;20020;-72
2023/09/01 00:56:38;;;;;;;6.40;2.75;;;;;;;14.58;100.00;98606.88;5069078;28;20039;-75
2023/09/01 00:59:04;;;;;;;4.85;2.50;;;;;;;14.65;100.00;98618.50;5058904;28;20031;-72
2023/09/01 01:01:29;;;;;;;10.88;2.70;;;;;;;14.72;100.00;98612.09;5062653;28;20470;-72
2023/09/01 01:03:55;;;;;;;4.68;2.72;;;;;;;14.74;100.00;98605.34;5057471;28;20523;-72
2023/09/01 01:06:35;;;;;;;5.68;2.67;;;;;;;14.69;100.00;98608.78;5069359;28;20057;-72
2023/09/01 01:09:08;;;;;;;6.45;2.60;;;;;;;14.61;100.00;98617.28;5068566;28;20087;-72
2023/09/01 01:11:48;;;;;;;9.50;2.60;;;;;;;14.55;100.00;98626.41;5071562;28;20188;-72
2023/09/01 01:14:25;;;;;;;8.07;2.88;;;;;;;14.46;100.00;98625.88;5069192;28;20031;-72
2023/09/01 01:16:52;;;;;;;8.00;2.97;;;;;;;14.46;100.00;98631.34;5061042;28;20047;-72
2023/09/01 01:19:39;;;;;;;5.55;3.10;;;;;;;14.46;100.00;98636.78;5058231;28;20036;-72
2023/09/01 01:22:05;;;;;;;9.63;2.85;;;;;;;14.37;100.00;98613.66;5071073;28;20048;-72
2023/09/01 01:24:32;;;;;;;6.43;2.70;;;;;;;14.41;100.00;98627.66;5068742;28;20059;-72
2023/09/01 01:26:58;;;;;;;6.18;2.15;;;;;;;14.48;100.00;98633.81;5068106;28;20497;-72
2023/09/01 01:29:23;;;;;;;5.85;2.60;;;;;;;14.51;100.00;98637.94;5084105;28;20013;-72
2023/09/01 01:31:48;;;;;;;6.15;2.85;;;;;;;14.53;100.00;98639.41;5083880;28;20033;-72
2023/09/01 01:34:25;;;;;;;4.25;2.42;;;;;;;14.51;100.00;98632.50;5090335;28;20016;-72
2023/09/01 01:37:07;;;;;;;5.60;2.45;;;;;;;14.54;100.00;98627.47;5081547;28;20023;-73
2023/09/01 01:39:33;;;;;;;7.05;2.92;;;;;;;14.47;100.00;98619.38;5077449;28;20509;-73
2023/09/01 01:42:03;;;;;;;9.57;2.50;;;;;;;14.39;100.00;98614.25;5082893;28;20021;-73
2023/09/01 01:44:36;;;;;;;10.15;3.20;;;;;;;14.42;100.00;98618.41;5093770;28;20032;-72
2023/09/01 01:47:02;;;;;;;5.40;2.75;;;;;;;14.42;100.00;98612.97;5084461;28;20103;-73
2023/09/01 01:49:28;;;;;;;5.50;2.53;;;;;;;14.33;100.00;98600.75;5070519;28;20111;-72
2023/09/01 01:51:53;;;;;;;7.45;2.40;;;;;;;14.40;100.00;98610.47;5067531;28;20059;-73
2023/09/01 01:54:18;;;;;;;14.00;2.72;;;;;;;14.39;100.00;98618.88;5076957;28;20082;-73
2023/09/01 01:56:44;;;;;;;11.10;2.60;;;;;;;14.45;100.00;98617.94;5074911;28;20473;-73
2023/09/01 01:59:09;;;;;;;4.80;2.33;;;;;;;14.48;100.00;98606.59;5090077;28;20036;-73
2023/09/01 02:01:34;;;;;;;8.27;2.45;;;;;;;14.43;100.00;98598.28;5072675;28;20056;-73
2023/09/01 02:04:00;;;;;;;6.75;2.42;;;;;;;14.49;100.00;98605.53;5066372;28;20474;-72
2023/09/01 02:06:25;;;;;;;9.02;2.28;;;;;;;14.41;100.00;98605.88;5066138;28;20039;-73
2023/09/01 02:08:50;;;;;;;4.40;1.98;;;;;;;14.48;100.00;98612.03;5058078;28;20111;-73
2023/09/01 02:11:15;;;;;;;6.28;2.58;;;;;;;14.54;100.00;98605.69;5074087;28;20033;-73
2023/09/01 02:13:42;;;;;;;4.72;2.33;;;;;;;14.49;100.00;98613.69;5073918;28;20100;-73
2023/09/01 02:16:07;;;;;;;7.75;2.85;;;;;;;14.39;100.00;98608.81;5069668;28;20028;-73
2023/09/01 02:18:33;;;;;;;8.27;2.80;;;;;;;14.36;100.00;98620.19;5074935;28;20030;-72
2023/09/01 02:20:59;;;;;;;5.32;2.45;;;;;;;14.23;100.00;98618.47;5073760;28;20142;-73
2023/09/01 02:23:24;;;;;;;6.63;3.45;;;;;;;14.18;100.00;98631.13;5071594;28;20059;-73
2023/09/01 02:25:50;;;;;;;4.85;2.88;;;;;;;14.15;100.00;98632.41;5065856;28;20042;-73
2023/09/01 02:28:15;;;;;;;5.13;3.05;;;;;;;14.05;100.00;98623.97;5081628;28;20035;-72
2023/09/01 02:30:41;;;;;;;8.52;3.08;;;;;;;14.16;100.00;98641.41;5061844;28;20064;-72
2023/09/01 02:33:06;;;;;;;10.05;3.28;;;;;;;14.13;100.00;98641.88;5061746;28;20021;-73
2023/09/01 02:35:32;;;;;;;7.95;2.72;;;;;;;14.12;100.00;98632.88;5072540;28;20024;-72
2023/09/01 02:37:57;;;;;;;5.18;3.28;;;;;;;14.20;100.00;98631.69;5069989;28;20123;-72
2023/09/01 02:40:24;;;;;;;7.80;3.05;;;;;;;14.27;100.00;98642.50;5073224;28;20035;-73
2023/09/01 02:42:51;;;;;;;4.78;2.88;;;;;;;14.25;100.00;98640.84;5071224;28;20028;-72
2023/09/01 02:45:17;;;;;;;5.97;2.75;;;;;;;14.19;100.00;98624.59;5066648;28;20032;-72
2023/09/01 02:47:43;;;;;;;8.88;3.05;;;;;;;14.21;100.00;98625.22;5059837;28;20021;-72
2023/09/01 02:50:09;;;;;;;5.57;3.10;;;;;;;14.38;100.00;98645.28;5064982;28;20672;-72
2023/09/01 02:52:35;;;;;;;5.70;2.78;;;;;;;14.38;100.00;98655.31;5074447;28;20032;-72
2023/09/01 02:55:00;;;;;;;5.55;3.20;;;;;;;14.40;100.00;98650.47;5060087;28;20024;-72
2023/09/01 02:57:27;;;;;;;4.53;2.88;;;;;;;14.42;100.00;98653.78;5060336;28;20077;-72
2023/09/01 02:59:53;;;;;;;6.28;2.88;;;;;;;14.41;100.00;98646.69;5078266;28;20053;-72
2023/09/01 03:02:19;;;;;;;4.35;2.63;;;;;;;14.37;100.00;98632.72;5068244;28;20036;-72
2023/09/01 03:04:44;;;;;;;7.13;2.55;;;;;;;14.43;100.00;98639.94;5074837;28;20442;-72
2023/09/01 03:07:09;;;;;;;8.10;2.78;;;;;;;14.47;100.00;98637.59;5067958;28;20040;-72
2023/09/01 03:09:34;;;;;;;11.30;2.60;;;;;;;14.55;100.00;98656.34;5076638;28;20024;-72
2023/09/01 03:12:00;;;;;;;5.65;2.38;;;;;;;14.61;100.00;98649.97;5060770;28;20478;-73
2023/09/01 03:14:25;;;;;;;6.38;2.40;;;;;;;14.60;100.00;98639.31;5072235;28;20030;-73
2023/09/01 03:16:50;;;;;;;3.72;2.53;;;;;;;14.66;100.00;98633.75;5068163;28;20043;-73
2023/09/01 03:19:16;;;;;;;4.55;2.22;;;;;;;14.74;100.00;98643.47;5080174;28;20119;-72
2023/09/01 03:21:41;;;;;;;2.92;2.00;;;;;;;14.76;100.00;98640.53;5055989;28;20076;-73
2023/09/01 03:24:07;;;;;;;7.57;2.42;;;;;;;14.67;100.00;98616.38;5059211;28;20605;-72
2023/09/01 03:26:32;;;;;;;4.88;2.25;;;;;;;14.92;100.00;98639.84;5072769;28;20036;-73
2023/09/01 03:28:57;;;;;;;5.07;2.03;;;;;;;14.92;100.00;98626.22;5076086;28;20021;-73
2023/09/01 03:31:23;;;;;;;4.43;2.05;;;;;;;15.06;100.00;98637.72;5070467;28;20151;-73
2023/09/01 03:33:48;;;;;;;6.20;1.75;;;;;;;15.08;100.00;98633.69;5062515;28;20047;-74
2023/09/01 03:36:14;;;;;;;4.88;1.92;;;;;;;15.01;100.00;98630.25;5065293;28;20402;-73
2023/09/01 03:38:40;;;;;;;5.72;2.13;;;;;;;15.06;100.00;98632.25;5058716;28;20687;-73
2023/09/01 03:41:06;;;;;;;3.60;1.90;;;;;;;15.11;100.00;98648.72;5081137;28;20032;-74
2023/09/01 03:43:32;;;;;;;6.65;2.10;;;;;;;15.08;100.00;98636.41;5056728;28;20032;-73
2023/09/01 03:45:57;;;;;;;9.75;2.25;;;;;;;15.07;100.00;98640.22;5060457;28;20021;-72
2023/09/01 03:48:23;;;;;;;5.07;2.17;;;;;;;15.06;100.00;98633.09;5062185;28;20048;-73
2023/09/01 03:51:24;;;;;;;3.60;2.00;;;;;;;15.13;100.00;98641.16;5067707;28;20094;-73
2023/09/01 03:53:49;;;;;;;3.88;2.05;;;;;;;15.19;100.00;98633.91;4992343;28;20030;-73
2023/09/01 03:56:17;;;;;;;3.30;1.92;;;;;;;15.20;100.00;98644.59;5055532;28;20045;-73
2023/09/01 03:58:42;;;;;;;6.22;2.58;;;;;;;15.11;100.00;98630.47;5071429;28;20029;-73
2023/09/01 04:01:08;;;;;;;5.60;1.88;;;;;;;15.13;100.00;98619.34;5068082;28;20044;-73
2023/09/01 04:03:42;;;;;;;3.05;1.70;;;;;;;15.19;100.00;98640.19;5067474;28;20600;-73
2023/09/01 04:06:07;;;;;;;2.85;1.58;;;;;;;15.24;100.00;98636.75;5070585;28;20452;-72
2023/09/01 04:08:34;;;;;;;4.95;1.90;;;;;;;15.10;100.00;98626.09;5078206;28;20048;-73
2023/09/01 04:11:00;;;;;;;4.75;2.00;;;;;;;15.19;100.00;98631.19;5079669;28;20029;-73
2023/09/01 04:13:26;;;;;;;4.32;1.98;;;;;;;15.21;100.00;98642.69;5072509;28;20029;-72
2023/09/01 04:15:51;;;;;;;3.97;1.80;;;;;;;15.22;100.00;98636.16;5071857;28;20024;-73
2023/09/01 04:18:16;;;;;;;11.13;1.83;;;;;;;15.19;100.00;98632.00;5061842;28;20052;-72
2023/09/01 04:20:53;;;;;;;8.18;2.13;;;;;;;15.30;100.00;98641.25;5065969;28;20431;-73
2023/09/01 04:23:18;;;;;;;4.05;1.63;;;;;;;15.38;100.00;98640.91;5072845;28;20024;-73
2023/09/01 04:25:44;;;;;;;4.30;1.60;;;;;;;15.41;100.00;98634.16;5071074;28;20079;-73
2023/09/01 04:28:10;;;;;;;3.38;1.60;;;;;;;15.49;100.00;98640.06;5064602;28;20795;-73
2023/09/01 04:30:36;;;;;;;4.20;1.65;;;;;;;15.59;100.00;98638.63;5072295;28;20027;-73
2023/09/01 04:33:05;;;;;;;2.33;1.70;;;;;;;15.62;100.00;98638.16;5066934;28;20024;-73
2023/09/01 04:35:30;;;;;;;4.93;1.70;;;;;;;15.62;100.00;98640.88;5072000;28;20414;-73
2023/09/01 04:37:56;;;;;;;1.95;1.25;;;;;;;15.59;100.00;98623.09;5069168;28;20032;-73
2023/09/01 04:40:21;;;;;;;4.95;1.52;;;;;;;15.69;100.00;98634.25;5080665;28;20024;-73
2023/09/01 04:42:46;;;;;;;4.35;1.40;;;;;;;15.62;100.00;98622.63;5065991;28;20378;-73
2023/09/01 04:45:11;;;;;;;3.53;1.73;;;;;;;15.69;100.00;98633.41;5058354;28;20077;-73
2023/09/01 04:47:37;;;;;;;4.38;1.60;;;;;;;15.67;100.00;98611.00;5064534;28;20390;-73
2023/09/01 04:50:02;;;;;;;3.28;1.65;;;;;;;15.74;100.00;98631.59;5063125;28;20048;-73
2023/09/01 04:52:28;;;;;;;3.10;1.63;;;;;;;15.72;100.00;98620.13;5065211;28;20069;-77
2023/09/01 04:54:54;;;;;;;6.55;2.05;;;;;;;15.81;100.00;98636.13;5059522;28;20036;-70
2023/09/01 04:57:19;;;;;;;3.13;1.50;;;;;;;15.74;100.00;98614.41;5062994;28;20024;-74
2023/09/01 04:59:45;;;;;;;3.10;1.42;;;;;;;15.77;100.00;98612.06;5058443;28;20497;-75
2023/09/01 05:02:10;;;;;;;5.57;1.80;;;;;;;15.87;100.00;98630.50;5060691;28;20024;-74
2023/09/01 05:04:36;;;;;;;3.40;1.50;;;;;;;15.83;100.00;98626.63;5072227;28;20020;-75
2023/09/01 05:07:01;;;;;;;4.40;1.90;;;;;;;15.80;100.00;98612.63;5065062;28;20481;-75
2023/09/01 05:09:26;;;;;;;2.67;1.30;;;;;;;15.89;100.00;98631.09;5073473;28;20470;-73
2023/09/01 05:11:52;;;;;;;3.40;1.60;;;;;;;15.96;100.00;98630.97;5057604;28;20167;-75
2023/09/01 05:14:17;;;;;;;3.88;1.38;;;;;;;16.03;100.00;98625.38;5059797;28;20496;-74
2023/09/01 05:16:42;;;;;;;8.45;1.77;;;;;;;16.12;100.00;98627.47;5064775;28;20469;-75
2023/09/01 05:19:07;;;;;;;2.75;1.25;;;;;;;16.11;100.00;98622.25;5074934;28;20021;-69
2023/09/01 05:21:33;;;;;;;3.28;1.33;;;;;;;16.20;100.00;98626.25;5069896;28;20027;-74
2023/09/01 05:23:58;;;;;;;3.40;1.50;;;;;;;16.25;100.00;98631.81;5064572;28;20020;-75
2023/09/01 05:26:23;;;;;;;4.07;1.27;;;;;;;16.29;100.00;98627.50;5065302;28;20034;-76
2023/09/01 05:28:49;;;;;;;2.78;1.20;;;;;;;16.24;100.00;98619.22;5070954;28;20025;-74
2023/09/01 05:31:14;;;;;;;2.65;1.30;;;;;;;16.27;100.00;98629.66;5073860;28;20037;-74
2023/09/01 05:33:39;;;;;;;3.90;1.30;;;;;;;16.29;100.00;98622.03;5074661;28;20060;-74
2023/09/01 05:36:05;;;;;;;5.13;1.50;;;;;;;16.35;100.00;98642.91;5068340;28;20021;-74
2023/09/01 05:38:30;;;;;;;3.35;1.38;;;;;;;16.35;100.00;98637.47;5074405;28;20032;-75
2023/09/01 05:40:57;;;;;;;6.20;1.63;;;;;;;16.45;100.00;98642.25;5059690;28;20024;-70
2023/09/01 05:43:23;;;;;;;4.25;1.48;;;;;;;16.35;100.00;98636.63;5064345;28;20032;-70
2023/09/01 05:45:49;;;;;;;4.80;1.40;;;;;;;16.32;100.00;98629.78;5067724;28;20028;-76
2023/09/01 05:48:14;;;;;;;5.53;1.23;;;;;;;16.45;100.00;98642.25;5070737;28;20054;-71
2023/09/01 05:50:42;;;;;;;1.30;0.90;;;;;;;16.55;100.00;98642.44;5071613;28;20538;-71
2023/09/01 05:53:07;;;;;;;4.32;1.17;;;;;;;16.62;100.00;98648.59;5056731;28;20047;-71
2023/09/01 05:55:33;;;;;;;2.33;1.33;;;;;;;16.59;100.00;98638.16;5075694;28;20028;-71
2023/09/01 05:57:58;;;;;;;4.35;1.30;;;;;;;16.68;100.00;98652.22;5091683;28;20056;-71
2023/09/01 06:00:24;;;;;;;4.85;1.25;;;;;;;16.63;100.00;98649.41;5088549;28;21146;-71
2023/09/01 06:02:51;;;;;;;4.43;1.20;;;;;;;16.60;100.00;98660.84;5086196;28;20032;-71
2023/09/01 06:05:16;;;;;;;6.10;1.52;;;;;;;16.65;100.00;98658.19;5075108;28;20473;-71
2023/09/01 06:07:42;;;;;;;7.25;1.30;;;;;;;16.62;100.00;98670.44;5067353;28;20048;-71
2023/09/01 06:10:08;;;;;;;1.85;1.20;;;;;;;16.57;100.00;98664.88;5072381;28;20053;-75
2023/09/01 06:12:33;;;;;;;3.38;1.20;;;;;;;16.57;100.00;98678.53;5072267;28;20438;-70
2023/09/01 06:14:58;;;;;;;1.85;1.10;;;;;;;16.39;100.00;98687.75;5072372;28;20033;-70
2023/09/01 06:17:24;;;;;;;2.83;1.48;;;;;;;16.27;100.00;98695.19;5065010;28;20393;-70
2023/09/01 06:19:49;;;;;;;6.75;1.70;;;;;;;16.18;100.00;98699.34;5063732;28;20470;-70
2023/09/01 06:22:14;;;;;;;5.18;1.55;;;;;;;16.17;100.00;98708.63;5065930;28;20056;-70
2023/09/01 06:24:39;;;;;;;3.08;1.42;;;;;;;16.21;100.00;98701.59;5072548;28;20032;-70
2023/09/01 06:27:05;;;;;;;2.70;1.58;;;;;;;16.22;100.00;98706.00;5071801;28;20036;-71
2023/09/01 06:29:30;;;;;;;2.33;1.70;;;;;;;16.09;100.00;98700.81;5073335;28;20410;-75
2023/09/01 06:31:55;;;;;;;3.35;1.67;;;;;;;15.96;100.00;98721.84;5066495;28;20474;-74
2023/09/01 06:34:21;;;;;;;8.77;2.15;;;;;;;15.80;100.00;98708.09;5072994;28;20025;-74
2023/09/01 06:36:46;;;;;;;5.25;2.83;;;;;;;15.85;100.00;98725.44;5081526;28;20024;-70
2023/09/01 06:39:11;;;;;;;4.15;2.42;;;;;;;15.81;100.00;98723.41;5071820;28;20039;-70
2023/09/01 06:41:37;;;;;;;5.05;2.70;;;;;;;15.87;100.00;98745.09;5077779;28;20052;-70
2023/09/01 06:44:02;;;;;;;6.88;2.80;;;;;;;15.85;100.00;98743.69;5070816;28;20444;-74
2023/09/01 06:46:28;;;;;;;4.88;2.58;;;;;;;15.90;100.00;98738.34;5066093;28;20021;-74
2023/09/01 06:48:53;;;;;;;3.33;1.75;;;;;;;15.82;100.00;98741.44;5068230;28;20107;-73
2023/09/01 06:51:18;;;;;;;4.13;1.80;;;;;;;15.88;100.00;98756.88;5074683;28;20395;-75
2023/09/01 06:53:43;;;;;;;2.95;1.63;;;;;;;15.80;100.00;98758.06;5070451;28;20016;-74
2023/09/01 06:56:09;;;;;;;8.82;2.03;;;;;;;15.85;100.00;98755.44;5071746;28;20055;-74
2023/09/01 06:58:34;;;;;;;6.45;1.90;;;;;;;15.97;100.00;98760.88;5074489;28;20020;-73
2023/09/01 07:01:11;;;;;;;3.53;1.88;;;;;;;16.03;100.00;98772.72;5058443;28;20029;-73
2023/09/01 07:03:36;;;;;;;3.55;1.70;;;;;;;16.07;100.00;98763.00;5064914;28;20024;-74
2023/09/01 07:06:03;;;;;;;3.15;1.77;;;;;;;16.22;100.00;98760.59;5071827;28;20120;-70
2023/09/01 07:08:29;;;;;;;3.30;1.80;;;;;;;16.29;100.00;98761.28;5069337;28;20115;-70
2023/09/01 07:11:03;;;;;;;3.17;1.80;;;;;;;16.36;100.00;98753.78;5075305;28;20130;-74
2023/09/01 07:13:29;;;;;;;3.55;1.83;;;;;;;16.50;100.00;98764.41;5071618;28;20032;-74
2023/09/01 07:15:54;;;;;;;8.60;1.70;;;;;;;16.55;100.00;98765.34;5065499;28;20031;-73
2023/09/01 07:18:22;;;;;;;4.57;1.70;;;;;;;16.47;100.00;98757.53;5071087;28;20024;-77
2023/09/01 07:20:49;;;;;;;4.22;1.50;;;;;;;16.44;100.00;98761.59;5063539;28;20124;-74
2023/09/01 07:23:15;;;;;;;4.22;1.50;;;;;;;16.58;100.00;98753.97;5070030;28;20016;-69
2023/09/01 07:25:40;;;;;;;6.97;1.98;;;;;;;16.73;100.00;98758.03;5064205;28;20094;-72
2023/09/01 07:28:06;;;;;;;6.07;1.83;;;;;;;16.81;100.00;98741.28;5066230;28;20034;-74
2023/09/01 07:30:32;;;;;;;5.97;1.80;;;;;;;16.94;100.00;98748.34;5065972;28;20032;-75
2023/09/01 07:32:59;;;;;;;3.97;1.23;;;;;;;17.17;100.00;98742.75;5069732;28;20104;-70
2023/09/01 07:35:25;;;;;;;1.70;1.10;;;;;;;17.34;100.00;98748.19;5054188;28;20029;-74
2023/09/01 07:37:50;;;;;;;3.97;0.90;;;;;;;17.31;100.00;98741.31;5069490;28;20043;-74
2023/09/01 07:40:16;;;;;;;2.25;1.10;;;;;;;17.32;100.00;98725.78;5059233;28;20024;-74
2023/09/01 07:42:41;;;;;;;4.57;1.10;;;;;;;17.30;100.00;98739.69;5071940;28;20025;-74
2023/09/01 07:45:07;;;;;;;5.05;1.55;;;;;;;17.12;100.00;98755.50;5054915;28;20436;-74
2023/09/01 07:47:33;;;;;;;2.08;1.10;;;;;;;17.02;100.00;98756.97;5060576;28;20063;-69
2023/09/01 07:49:58;;;;;;;3.72;1.27;;;;;;;17.09;100.00;98754.09;5066824;28;20045;-75
2023/09/01 07:52:24;;;;;;;3.20;1.17;;;;;;;17.09;100.00;98745.88;5063925;28;20028;-69
2023/09/01 07:54:49;;;;;;;3.58;1.15;;;;;;;17.36;100.00;98757.00;5066510;28;20024;-69
2023/09/01 07:57:14;;;;;;;2.00;1.00;;;;;;;17.21;100.00;98760.31;5064235;28;20362;-69
2023/09/01 07:59:39;;;;;;;6.43;1.38;;;;;;;17.21;100.00;98756.72;5073064;28;20425;-75
2023/09/01 08:02:05;;;;;;;2.25;1.00;;;;;;;17.34;100.00;98759.13;5071531;28;20032;-77
2023/09/01 08:04:31;;;;;;;4.25;1.45;;;;;;;17.59;100.00;98750.53;5076096;28;20189;-76
2023/09/01 08:06:58;;;;;;;2.58;0.90;;;;;;;17.79;100.00;98754.63;5058593;28;20035;-75
2023/09/01 08:09:23;;;;;;;2.22;0.85;;;;;;;17.88;100.00;98737.56;5079173;28;20028;-73
2023/09/01 08:11:49;;;;;;;3.00;1.10;;;;;;;17.80;100.00;98742.66;5069436;28;20025;-73
2023/09/01 08:14:14;;;;;;;1.38;0.93;;;;;;;18.08;100.00;98758.94;5062971;28;20024;-73
2023/09/01 08:16:39;;;;;;;1.63;1.05;;;;;;;18.18;100.00;98748.09;5065324;28;20101;-75
2023/09/01 08:19:04;;;;;;;2.08;1.02;;;;;;;18.46;100.00;98754.47;5067294;28;20684;-69
2023/09/01 08:21:30;;;;;;;3.20;1.00;;;;;;;18.73;100.00;98739.94;5073418;28;20021;-70
2023/09/01 08:23:56;;;;;;;2.65;1.05;;;;;;;18.90;100.00;98751.69;5063275;28;20067;-69
2023/09/01 08:26:21;;;;;;;2.38;1.05;;;;;;;19.06;100.00;98752.66;5068375;28;20032;-69
2023/09/01 08:28:46;;;;;;;2.22;0.80;;;;;;;19.15;100.00;98753.00;5068684;28;20385;-69
2023/09/01 08:31:12;;;;;;;2.33;0.90;;;;;;;19.05;100.00;98749.09;5067654;28;20055;-69
2023/09/01 08:33:37;;;;;;;1.98;0.90;;;;;;;19.55;100.00;98746.22;5068724;28;20032;-69
2023/09/01 08:36:03;;;;;;;1.23;0.63;;;;;;;19.89;100.00;98747.56;5077415;28;20043;-69
2023/09/01 08:38:29;;;;;;;2.08;0.60;;;;;;;20.52;100.00;98727.53;5076645;28;20166;-69
2023/09/01 08:41:02;;;;;;;3.30;0.70;;;;;;;20.81;100.00;98708.66;5061350;28;20198;-75
2023/09/01 08:43:32;;;;;;;1.35;0.50;;;;;;;21.02;100.00;98713.06;5051192;28;20029;-76
2023/09/01 08:45:59;;;;;;;3.38;0.80;;;;;;;21.58;100.00;98708.66;5062614;28;20029;-76
2023/09/01 08:48:25;;;;;;;0.95;0.60;;;;;;;22.05;100.00;98697.25;5057339;28;20074;-75
2023/09/01 08:50:52;;;;;;;1.13;0.43;;;;;;;23.99;100.00;98688.69;5057861;28;20029;-74
2023/09/01 08:53:18;;;;;;;1.20;0.82;;;;;;;25.56;100.00;98686.69;5061816;28;20032;-76
2023/09/01 08:55:43;;;;;;;2.65;0.45;;;;;;;25.79;100.00;98690.44;5065065;28;20028;-74
2023/09/01 08:58:09;;;;;;;2.35;0.52;;;;;;;25.44;100.00;98697.44;5065081;28;20032;-73
2023/09/01 09:00:34;;;;;;;2.25;0.75;;;;;;;25.78;100.00;98689.63;5064693;28;20033;-76
2023/09/01 09:03:00;;;;;;;1.02;0.55;;;;;;;25.33;100.00;98696.78;5057455;28;20024;-74
2023/09/01 09:05:27;;;;;;;1.63;0.60;;;;;;;25.96;100.00;98703.69;5072857;28;20031;-75
2023/09/01 09:08:06;;;;;;;0.60;0.40;;;;;;;27.26;100.00;98690.34;5075789;28;20032;-74
2023/09/01 09:10:36;;;;;;;0.93;0.40;;;;;;;28.22;100.00;98688.03;5067573;28;20115;-75
2023/09/01 09:13:18;;;;;;;1.27;0.40;;;;;;;28.81;100.00;98677.38;5073436;28;20028;-77
2023/09/01 09:15:44;;;;;;;1.50;0.50;;;;;;;29.97;100.00;98670.13;5060480;28;20020;-76
2023/09/01 09:18:09;;;;;;;1.08;0.47;;;;;;;31.41;81.36;98671.78;5071111;28;20040;-76
2023/09/01 09:20:38;;;;;;;1.88;0.60;;;;;;;32.33;74.08;98678.09;5071239;28;20032;-76
2023/09/01 09:23:04;;;;;;;2.70;0.50;;;;;;;34.07;66.59;98675.13;5068520;28;20111;-75
2023/09/01 09:25:34;;;;;;;3.40;0.77;;;;;;;31.82;71.81;98687.59;5051711;28;20148;-77
2023/09/01 09:28:20;;;;;;;1.50;0.50;;;;;;;34.33;64.42;98689.41;5060928;28;20655;-71
2023/09/01 09:30:49;;;;;;;1.92;0.50;;;;;;;33.67;62.85;98676.91;5064711;28;20398;-77
2023/09/01 09:33:24;;;;;;;1.00;0.50;;;;;;;31.66;69.89;98690.25;5069992;28;20032;-71
2023/09/01 09:35:50;;;;;;;0.93;0.50;;;;;;;30.73;79.40;98681.22;5062399;28;20028;-71
2023/09/01 09:38:17;;;;;;;1.98;0.50;;;;;;;30.01;90.32;98652.41;5068070;28;20605;-71
2023/09/01 09:40:55;;;;;;;1.13;0.52;;;;;;;27.06;100.00;98673.03;5061441;28;20065;-71
2023/09/01 09:43:20;;;;;;;1.10;0.50;;;;;;;25.67;100.00;98674.28;5073104;28;20382;-71
2023/09/01 09:45:45;;;;;;;2.33;0.65;;;;;;;23.88;100.00;98682.47;5064493;28;20053;-69
2023/09/01 09:48:13;;;;;;;1.58;0.75;;;;;;;23.17;100.00;98672.94;5065447;28;20669;-69
2023/09/01 09:50:39;;;;;;;1.08;0.60;;;;;;;22.47;100.00;98695.16;5065605;28;20052;-69
2023/09/01 09:53:05;;;;;;;2.00;0.80;;;;;;;22.01;100.00;98696.19;5062708;28;20088;-70
2023/09/01 09:55:52;;;;;;;2.22;0.70;;;;;;;21.49;100.00;98669.06;5067134;28;20110;-69
2023/09/01 09:58:18;;;;;;;1.20;0.52;;;;;;;21.56;100.00;98699.84;5074974;28;20509;-69
2023/09/01 10:00:51;;;;;;;1.50;0.68;;;;;;;21.14;100.00;98710.06;5065371;28;20032;-69
2023/09/01 10:03:18;;;;;;;3.28;0.60;;;;;;;20.70;100.00;98705.06;5065584;28;20648;-70
2023/09/01 10:05:44;;;;;;;2.50;0.70;;;;;;;20.64;100.00;98706.13;5058626;28;20032;-71
2023/09/01 10:08:10;;;;;;;1.15;0.60;;;;;;;20.77;100.00;98715.78;5056964;28;20032;-71
2023/09/01 10:10:37;;;;;;;3.58;0.90;;;;;;;20.72;100.00;98707.50;5053665;28;20474;-71
2023/09/01 10:13:07;;;;;;;1.77;0.60;;;;;;;21.37;100.00;98716.09;5066822;28;20025;-71
2023/09/01 10:15:34;;;;;;;3.15;0.82;;;;;;;21.77;100.00;98712.50;5062920;28;20032;-71
2023/09/01 10:18:08;;;;;;;3.40;0.77;;;;;;;22.12;100.00;98707.97;5068884;28;20024;-71
2023/09/01 10:20:35;;;;;;;1.15;0.63;;;;;;;22.33;100.00;98703.25;5052807;28;20413;-71
2023/09/01 10:23:04;;;;;;;3.38;0.50;;;;;;;22.21;100.00;98711.81;5061293;28;20112;-71
2023/09/01 10:25:31;;;;;;;3.90;0.88;;;;;;;21.79;100.00;98723.22;5068920;28;20028;-71
2023/09/01 10:28:12;;;;;;;0.95;0.55;;;;;;;21.91;100.00;98712.75;5083179;28;20024;-71
2023/09/01 10:30:45;;;;;;;0.63;0.30;;;;;;;21.94;100.00;98708.59;5067022;28;20115;-70
2023/09/01 10:33:11;;;;;;;0.50;0.40;;;;;;;22.20;100.00;98701.09;5056605;28;20077;-71
2023/09/01 10:35:37;;;;;;;0.82;0.50;;;;;;;22.26;100.00;98694.44;5059143;28;20074;-71
2023/09/01 10:38:20;;;;;;;1.27;0.30;;;;;;;22.28;100.00;98700.50;5066494;28;20024;-71
2023/09/01 10:40:48;;;;;;;0.30;0.20;;;;;;;21.62;100.00;98710.59;5063694;28;20486;-70
2023/09/01 10:43:35;;;;;;;3.25;0.40;;;;;;;21.37;100.00;98716.91;5061778;28;20037;-70
2023/09/01 10:46:16;;;;;;;0.88;0.40;;;;;;;21.27;100.00;98724.34;5064911;28;20021;-70
2023/09/01 10:48:53;;;;;;;0.13;0.10;;;;;;;20.77;100.00;98711.09;5075629;28;20123;-70
2023/09/01 10:51:25;;;;;;;0.50;0.30;;;;;;;20.76;100.00;98717.72;5075303;28;20088;-70
2023/09/01 10:53:52;;;;;;;0.50;0.43;;;;;;;20.24;100.00;98729.59;5069555;28;20024;-70
2023/09/01 10:56:20;;;;;;;1.27;0.38;;;;;;;19.84;100.00;98725.56;5063585;28;20032;-70
2023/09/01 10:58:48;;;;;;;0.73;0.30;;;;;;;19.86;100.00;98744.53;5074699;28;20025;-70
2023/09/01 11:01:37;;;;;;;2.05;0.40;;;;;;;20.36;100.00;98732.13;5057588;28;20060;-70
2023/09/01 11:04:14;;;;;;;0.70;0.43;;;;;;;20.81;100.00;98716.06;5055784;28;20124;-70
2023/09/01 11:07:03;;;;;;;0.70;0.47;;;;;;;21.82;100.00;98719.91;5068493;28;20029;-70
2023/09/01 11:09:34;;;;;;;0.98;0.30;;;;;;;22.46;100.00;98702.63;5060089;28;20513;-70
2023/09/01 11:12:04;;;;;;;0.47;0.30;;;;;;;22.81;100.00;98684.19;5066740;28;20032;-70
2023/09/01 11:14:34;;;;;;;0.77;0.38;;;;;;;22.78;100.00;98701.31;5062983;28;20037;-70
2023/09/01 11:17:03;;;;;;;1.08;0.40;;;;;;;22.35;100.00;98708.44;5064953;28;20111;-70
2023/09/01 11:19:46;;;;;;;;;;;;;;;21.96;100.00;98709.97;5065019;28;20024;-70
2023/09/01 11:22:11;;;;;;;4.63;0.70;;;;;;;21.98;100.00;98713.28;5064994;28;19916;-71
2023/09/01 11:24:36;;;;;;;1.05;0.40;;;;;;;21.79;100.00;98709.44;5060721;28;20035;-71